createdAt,value
2022-10-22T00:00:16.868Z,7.77
2022-10-22T00:02:46.648Z,7.75
2022-10-22T00:05:15.715Z,7.75
2022-10-22T00:07:48.065Z,7.80
2022-10-22T00:10:17.741Z,7.77
2022-10-22T00:12:49.501Z,7.73
2022-10-22T00:15:21.546Z,7.74
2022-10-22T00:17:50.276Z,7.67
2022-10-22T00:20:19.079Z,7.70
2022-10-22T00:22:48.150Z,7.61
2022-10-22T00:25:17.275Z,7.63
2022-10-22T00:27:48.091Z,7.65
2022-10-22T00:30:17.130Z,7.61
2022-10-22T00:32:48.888Z,7.60
2022-10-22T00:35:17.794Z,7.61
2022-10-22T00:37:46.497Z,7.64
2022-10-22T00:40:15.310Z,7.66
2022-10-22T00:42:44.670Z,7.63
2022-10-22T00:45:24.141Z,7.59
2022-10-22T00:48:00.177Z,7.66
2022-10-22T00:50:35.199Z,7.63
2022-10-22T00:53:09.809Z,7.68
2022-10-22T00:55:43.828Z,7.66
2022-10-22T00:58:14.987Z,7.60
2022-10-22T01:00:45.930Z,7.59
2022-10-22T01:03:15.724Z,7.53
2022-10-22T01:05:53.520Z,7.60
2022-10-22T01:08:30.039Z,7.54
2022-10-22T01:11:15.318Z,7.50
2022-10-22T01:13:56.968Z,7.55
2022-10-22T01:16:38.780Z,7.63
2022-10-22T01:19:31.587Z,7.57
2022-10-22T01:22:10.436Z,7.50
2022-10-22T01:24:57.397Z,7.50
2022-10-22T01:27:41.254Z,7.38
2022-10-22T01:30:15.344Z,7.40
2022-10-22T01:32:50.156Z,7.49
2022-10-22T01:35:24.992Z,7.47
2022-10-22T01:38:00.280Z,7.40
2022-10-22T01:40:30.275Z,7.49
2022-10-22T01:43:01.195Z,7.44
2022-10-22T01:45:37.066Z,7.46
2022-10-22T01:48:27.158Z,7.40
2022-10-22T01:51:32.909Z,7.44
2022-10-22T01:54:13.327Z,7.30
2022-10-22T01:56:57.940Z,7.47
2022-10-22T01:59:42.436Z,7.42
2022-10-22T02:02:27.113Z,7.39
2022-10-22T02:05:02.278Z,7.44
2022-10-22T02:07:39.396Z,7.39
2022-10-22T02:10:12.006Z,7.40
2022-10-22T02:12:44.870Z,7.40
2022-10-22T02:15:38.043Z,7.34
2022-10-22T02:18:11.083Z,7.38
2022-10-22T02:20:43.730Z,7.47
2022-10-22T02:23:13.654Z,7.51
2022-10-22T02:25:48.811Z,7.51
2022-10-22T02:28:28.418Z,7.56
2022-10-22T02:31:04.912Z,7.56
2022-10-22T02:33:40.121Z,7.50
2022-10-22T02:36:10.782Z,7.54
2022-10-22T02:38:41.775Z,7.51
2022-10-22T02:41:11.053Z,7.53
2022-10-22T02:43:45.016Z,7.51
2022-10-22T02:46:13.944Z,7.49
2022-10-22T02:48:44.125Z,7.52
2022-10-22T02:51:12.954Z,7.47
2022-10-22T02:53:41.802Z,7.44
2022-10-22T02:56:10.745Z,7.50
2022-10-22T02:58:39.610Z,7.51
2022-10-22T03:01:10.308Z,7.52
2022-10-22T03:03:41.157Z,7.47
2022-10-22T03:06:11.589Z,7.50
2022-10-22T03:08:40.462Z,7.51
2022-10-22T03:11:09.229Z,7.33
2022-10-22T03:13:38.031Z,7.37
2022-10-22T03:16:08.006Z,7.38
2022-10-22T03:18:37.256Z,7.32
2022-10-22T03:21:15.604Z,7.27
2022-10-22T03:23:45.203Z,7.36
2022-10-22T03:26:16.272Z,7.27
2022-10-22T03:28:46.855Z,7.24
2022-10-22T03:31:15.620Z,7.18
2022-10-22T03:33:44.372Z,7.30
2022-10-22T03:36:14.836Z,7.28
2022-10-22T03:38:43.868Z,7.33
2022-10-22T03:41:13.117Z,7.30
2022-10-22T03:43:42.264Z,7.33
2022-10-22T03:46:11.111Z,7.28
2022-10-22T03:48:39.823Z,7.28
2022-10-22T03:51:09.258Z,7.33
2022-10-22T03:53:39.581Z,7.32
2022-10-22T03:56:11.425Z,7.28
2022-10-22T03:58:42.570Z,7.24
2022-10-22T04:01:14.224Z,7.26
2022-10-22T04:03:43.272Z,7.33
2022-10-22T04:06:14.033Z,7.26
2022-10-22T04:08:46.174Z,7.28
2022-10-22T04:11:16.212Z,7.18
2022-10-22T04:13:45.998Z,7.19
2022-10-22T04:16:18.170Z,7.17
2022-10-22T04:18:49.883Z,7.22
2022-10-22T04:21:20.869Z,7.17
2022-10-22T04:23:53.965Z,7.05
2022-10-22T04:26:23.052Z,7.19
2022-10-22T04:28:53.898Z,7.15
2022-10-22T04:31:26.055Z,7.14
2022-10-22T04:33:56.396Z,7.08
2022-10-22T04:36:26.928Z,7.13
2022-10-22T04:38:59.459Z,7.12
2022-10-22T04:41:31.332Z,7.15
2022-10-22T04:44:00.672Z,7.18
2022-10-22T04:46:32.407Z,7.18
2022-10-22T04:49:03.495Z,7.15
2022-10-22T04:51:32.930Z,7.03
2022-10-22T04:54:03.287Z,7.09
2022-10-22T04:56:33.532Z,7.03
2022-10-22T04:59:05.378Z,7.15
2022-10-22T05:01:40.184Z,7.15
2022-10-22T05:04:15.418Z,7.17
2022-10-22T05:06:45.331Z,7.26
2022-10-22T05:09:18.514Z,7.24
2022-10-22T05:11:50.537Z,7.30
2022-10-22T05:14:22.171Z,7.35
2022-10-22T05:16:52.376Z,7.30
2022-10-22T05:19:24.126Z,7.34
2022-10-22T05:21:53.184Z,7.35
2022-10-22T05:24:23.640Z,7.32
2022-10-22T05:26:53.251Z,7.35
2022-10-22T05:29:22.775Z,7.46
2022-10-22T05:31:51.926Z,7.40
2022-10-22T05:34:21.259Z,7.42
2022-10-22T05:36:50.046Z,7.50
2022-10-22T05:39:18.881Z,7.47
2022-10-22T05:41:49.036Z,7.55
2022-10-22T05:44:17.841Z,7.51
2022-10-22T05:46:46.920Z,7.54
2022-10-22T05:49:17.126Z,7.51
2022-10-22T05:51:45.956Z,7.51
2022-10-22T05:54:20.731Z,7.47
2022-10-22T05:56:51.161Z,7.47
2022-10-22T05:59:19.986Z,7.53
2022-10-22T06:01:48.824Z,7.48
2022-10-22T06:04:18.082Z,7.45
2022-10-22T06:06:48.954Z,7.51
2022-10-22T06:09:23.640Z,7.50
2022-10-22T06:11:57.408Z,7.46
2022-10-22T06:14:27.453Z,7.51
2022-10-22T06:16:57.615Z,7.56
2022-10-22T06:19:28.172Z,7.68
2022-10-22T06:21:57.956Z,7.66
2022-10-22T06:24:27.216Z,7.67
2022-10-22T06:26:57.650Z,7.75
2022-10-22T06:29:32.993Z,7.75
2022-10-22T06:32:03.703Z,7.84
2022-10-22T06:34:35.401Z,7.86
2022-10-22T06:37:11.558Z,7.86
2022-10-22T06:39:40.601Z,7.88
2022-10-22T06:42:13.819Z,7.85
2022-10-22T06:44:42.915Z,7.94
2022-10-22T06:47:12.120Z,7.91
2022-10-22T06:49:42.738Z,8.05
2022-10-22T06:52:13.725Z,8.12
2022-10-22T06:54:43.762Z,8.12
2022-10-22T06:57:13.919Z,8.13
2022-10-22T06:59:42.718Z,8.12
2022-10-22T07:02:11.717Z,7.98
2022-10-22T07:04:40.505Z,8.07
2022-10-22T07:07:09.454Z,8.10
2022-10-22T07:09:39.422Z,8.06
2022-10-22T07:12:08.720Z,8.07
2022-10-22T07:14:39.051Z,8.19
2022-10-22T07:17:07.834Z,8.13
2022-10-22T07:19:36.608Z,8.21
2022-10-22T07:22:05.528Z,8.31
2022-10-22T07:24:34.278Z,8.35
2022-10-22T07:27:05.066Z,8.42
2022-10-22T07:29:44.631Z,8.36
2022-10-22T07:32:13.728Z,8.33
2022-10-22T07:34:43.876Z,8.33
2022-10-22T07:37:13.026Z,8.41
2022-10-22T07:39:41.760Z,8.45
2022-10-22T07:42:10.510Z,8.57
2022-10-22T07:44:42.884Z,8.61
2022-10-22T07:47:12.029Z,8.63
2022-10-22T07:49:40.895Z,8.68
2022-10-22T07:52:09.777Z,8.73
2022-10-22T07:54:38.488Z,8.82
2022-10-22T07:57:07.231Z,8.89
2022-10-22T07:59:36.006Z,8.98
2022-10-22T08:02:06.519Z,9.08
2022-10-22T08:04:35.361Z,9.15
2022-10-22T08:07:04.072Z,9.19
2022-10-22T08:09:32.927Z,9.13
2022-10-22T08:12:01.887Z,9.14
2022-10-22T08:14:31.398Z,9.15
2022-10-22T08:17:00.258Z,9.12
2022-10-22T08:19:32.514Z,9.13
2022-10-22T08:22:01.305Z,9.19
2022-10-22T08:24:30.338Z,9.11
2022-10-22T08:26:59.015Z,9.17
2022-10-22T08:29:28.127Z,9.23
2022-10-22T08:31:56.840Z,9.21
2022-10-22T08:34:25.477Z,9.21
2022-10-22T08:36:55.747Z,9.26
2022-10-22T08:39:24.932Z,9.34
2022-10-22T08:42:14.379Z,9.35
2022-10-22T08:45:09.910Z,9.41
2022-10-22T08:48:05.670Z,9.49
2022-10-22T08:50:39.807Z,9.61
2022-10-22T08:53:16.547Z,9.66
2022-10-22T08:55:47.121Z,9.70
2022-10-22T08:58:27.043Z,9.72
2022-10-22T09:01:03.931Z,9.80
2022-10-22T09:03:44.184Z,9.80
2022-10-22T09:06:21.055Z,9.73
2022-10-22T09:08:57.979Z,9.71
2022-10-22T09:11:32.287Z,9.67
2022-10-22T09:14:03.446Z,9.69
2022-10-22T09:16:40.473Z,9.55
2022-10-22T09:19:25.126Z,9.59
2022-10-22T09:22:10.178Z,9.65
2022-10-22T09:24:45.418Z,9.71
2022-10-22T09:27:17.915Z,9.66
2022-10-22T09:29:49.464Z,9.70
2022-10-22T09:32:19.601Z,9.68
2022-10-22T09:34:50.794Z,9.64
2022-10-22T09:37:27.172Z,9.68
2022-10-22T09:40:00.178Z,9.74
2022-10-22T09:42:28.987Z,9.81
2022-10-22T09:45:01.009Z,9.86
2022-10-22T09:47:43.503Z,9.85
2022-10-22T09:50:31.563Z,9.80
2022-10-22T09:53:06.523Z,9.86
2022-10-22T09:55:40.201Z,9.91
2022-10-22T09:58:14.936Z,9.94
2022-10-22T10:00:48.959Z,10.03
2022-10-22T10:03:20.043Z,10.10
2022-10-22T10:05:51.628Z,10.13
2022-10-22T10:08:20.939Z,10.07
2022-10-22T10:10:55.727Z,10.16
2022-10-22T10:13:43.106Z,10.14
2022-10-22T10:16:31.793Z,9.99
2022-10-22T10:19:21.345Z,10.14
2022-10-22T10:22:03.752Z,10.20
2022-10-22T10:24:57.083Z,10.17
2022-10-22T10:27:36.515Z,10.18
2022-10-22T10:30:14.098Z,10.19
2022-10-22T10:33:16.958Z,10.21
2022-10-22T10:35:59.572Z,10.24
2022-10-22T10:38:47.135Z,10.17
2022-10-22T10:41:27.047Z,10.22
2022-10-22T10:44:45.214Z,10.26
2022-10-22T10:47:51.571Z,10.38
2022-10-22T10:50:29.983Z,10.41
2022-10-22T10:53:14.926Z,10.37
2022-10-22T10:56:00.904Z,10.42
2022-10-22T10:58:48.274Z,10.38
2022-10-22T11:01:34.071Z,10.30
2022-10-22T11:04:48.344Z,10.32
2022-10-22T11:07:34.117Z,10.35
2022-10-22T11:10:15.190Z,10.43
2022-10-22T11:12:48.940Z,10.33
2022-10-22T11:15:28.749Z,10.29
2022-10-22T11:18:09.681Z,10.32
2022-10-22T11:20:51.687Z,10.35
2022-10-22T11:23:30.433Z,10.27
2022-10-22T11:26:01.748Z,10.33
2022-10-22T11:28:39.079Z,10.31
2022-10-22T11:31:16.909Z,10.24
2022-10-22T11:34:04.705Z,10.25
2022-10-22T11:36:47.231Z,10.22
2022-10-22T11:39:39.078Z,10.01
2022-10-22T11:42:12.590Z,9.97
2022-10-22T11:47:29.093Z,9.89
2022-10-22T11:50:18.195Z,9.89
2022-10-22T11:53:07.940Z,9.90
2022-10-22T11:55:49.598Z,9.89
2022-10-22T11:58:42.384Z,9.85
2022-10-22T12:01:30.750Z,9.84
2022-10-22T12:04:22.022Z,9.89
2022-10-22T12:07:00.457Z,9.85
2022-10-22T12:09:32.906Z,9.77
2022-10-22T12:12:15.014Z,9.80
2022-10-22T12:14:57.526Z,9.76
2022-10-22T12:17:29.306Z,9.78
2022-10-22T12:20:08.451Z,9.75
2022-10-22T12:22:40.670Z,9.75
2022-10-22T12:25:21.563Z,9.78
2022-10-22T12:27:54.890Z,9.83
2022-10-22T12:30:26.824Z,9.80
2022-10-22T12:32:58.658Z,9.84
2022-10-22T12:35:31.515Z,9.78
2022-10-22T12:38:06.324Z,9.77
2022-10-22T12:40:36.972Z,9.69
2022-10-22T12:43:13.981Z,9.78
2022-10-22T12:45:46.172Z,9.73
2022-10-22T12:48:20.844Z,9.77
2022-10-22T12:50:55.102Z,9.76
2022-10-22T12:53:31.034Z,9.71
2022-10-22T12:56:06.730Z,9.72
2022-10-22T12:58:42.181Z,9.66
2022-10-22T13:01:14.275Z,9.69
2022-10-22T13:03:46.759Z,9.66
2022-10-22T13:06:25.995Z,9.66
2022-10-22T13:09:14.457Z,9.63
2022-10-22T13:11:51.409Z,9.52
2022-10-22T13:14:28.692Z,9.64
2022-10-22T13:17:14.903Z,9.55
2022-10-22T13:20:05.357Z,9.54
2022-10-22T13:22:37.070Z,9.54
2022-10-22T13:25:24.079Z,9.45
2022-10-22T13:27:56.930Z,9.43
2022-10-22T13:30:28.617Z,9.44
2022-10-22T13:33:00.433Z,9.50
2022-10-22T13:35:33.336Z,9.44
2022-10-22T13:38:02.413Z,9.45
2022-10-22T13:40:32.562Z,9.48
2022-10-22T13:43:01.302Z,9.46
2022-10-22T13:45:30.069Z,9.46
2022-10-22T13:47:58.930Z,9.39
2022-10-22T13:50:27.722Z,9.36
2022-10-22T13:53:00.150Z,9.33
2022-10-22T13:55:32.017Z,9.30
2022-10-22T13:58:11.219Z,9.27
2022-10-22T14:00:42.397Z,9.22
2022-10-22T14:03:14.174Z,9.22
2022-10-22T14:05:43.483Z,9.19
2022-10-22T14:08:15.350Z,9.10
2022-10-22T14:10:45.600Z,9.12
2022-10-22T14:13:15.359Z,9.05
2022-10-22T14:15:45.308Z,9.05
2022-10-22T14:18:24.218Z,9.03
2022-10-22T14:20:57.301Z,9.01
2022-10-22T14:23:29.249Z,8.95
2022-10-22T14:26:01.084Z,8.96
2022-10-22T14:28:34.128Z,8.99
2022-10-22T14:31:06.283Z,8.99
2022-10-22T14:33:35.851Z,8.99
2022-10-22T14:36:04.657Z,8.94
2022-10-22T14:38:33.462Z,8.98
2022-10-22T14:41:03.771Z,8.94
2022-10-22T14:43:32.865Z,8.93
2022-10-22T14:46:01.737Z,8.89
2022-10-22T14:48:30.470Z,8.89
2022-10-22T14:50:59.331Z,8.93
2022-10-22T14:53:28.117Z,8.88
2022-10-22T14:55:59.673Z,8.84
2022-10-22T14:58:30.103Z,8.79
2022-10-22T15:00:58.833Z,8.80
2022-10-22T15:03:27.665Z,8.78
2022-10-22T15:05:56.512Z,8.75
2022-10-22T15:08:27.186Z,8.71
2022-10-22T15:11:00.855Z,8.66
2022-10-22T15:13:32.735Z,8.60
2022-10-22T15:16:02.484Z,8.62
2022-10-22T15:18:31.294Z,8.59
2022-10-22T15:21:02.409Z,8.59
2022-10-22T15:23:31.643Z,8.58
2022-10-22T15:26:00.689Z,8.55
2022-10-22T15:28:31.028Z,8.58
2022-10-22T15:31:02.138Z,8.56
2022-10-22T15:33:31.238Z,8.56
2022-10-22T15:36:00.660Z,8.55
2022-10-22T15:41:05.560Z,8.51
2022-10-22T15:43:37.168Z,8.55
2022-10-22T15:46:16.156Z,8.45
2022-10-22T15:48:45.787Z,8.52
2022-10-22T15:51:17.363Z,8.49
2022-10-22T15:53:51.831Z,8.46
2022-10-22T15:56:20.927Z,8.46
2022-10-22T15:58:55.686Z,8.49
2022-10-22T16:01:25.669Z,8.51
2022-10-22T16:04:00.453Z,8.41
2022-10-22T16:06:31.339Z,8.39
2022-10-22T16:09:03.071Z,8.38
2022-10-22T16:11:33.001Z,8.40
2022-10-22T16:14:04.058Z,8.33
2022-10-22T16:16:36.623Z,8.38
2022-10-22T16:19:06.189Z,8.34
2022-10-22T16:21:35.315Z,8.35
2022-10-22T16:24:06.280Z,8.30
2022-10-22T16:26:36.226Z,8.24
2022-10-22T16:29:08.558Z,8.24
2022-10-22T16:31:37.801Z,8.26
2022-10-22T16:34:07.205Z,8.27
2022-10-22T16:36:36.570Z,8.26
2022-10-22T16:39:06.464Z,8.25
2022-10-22T16:41:37.566Z,8.21
2022-10-22T16:44:09.631Z,8.23
2022-10-22T16:46:39.177Z,8.21
2022-10-22T16:49:09.334Z,8.15
2022-10-22T16:51:38.475Z,8.21
2022-10-22T16:54:11.341Z,8.14
2022-10-22T16:56:41.774Z,8.18
2022-10-22T16:59:12.341Z,8.08
2022-10-22T17:01:41.685Z,8.17
2022-10-22T17:04:11.441Z,8.14
2022-10-22T17:06:41.190Z,8.11
2022-10-22T17:09:12.805Z,8.12
2022-10-22T17:11:42.650Z,8.06
2022-10-22T17:14:15.686Z,8.10
2022-10-22T17:16:49.082Z,8.07
2022-10-22T17:19:18.449Z,8.14
2022-10-22T17:21:48.972Z,8.12
2022-10-22T17:24:18.394Z,8.08
2022-10-22T17:26:50.805Z,8.10
2022-10-22T17:29:22.565Z,8.03
2022-10-22T17:31:52.854Z,8.14
2022-10-22T17:34:23.004Z,8.10
2022-10-22T17:36:55.679Z,8.07
2022-10-22T17:39:25.213Z,8.09
2022-10-22T17:41:54.758Z,8.00
2022-10-22T17:44:25.792Z,8.04
2022-10-22T17:46:55.312Z,8.04
2022-10-22T17:49:27.172Z,7.94
2022-10-22T17:54:34.209Z,7.99
2022-10-22T17:57:03.638Z,7.98
2022-10-22T17:59:34.871Z,7.98
2022-10-22T18:02:04.764Z,7.95
2022-10-22T18:04:38.796Z,7.98
2022-10-22T18:07:11.492Z,7.98
2022-10-22T18:09:43.141Z,7.94
2022-10-22T18:12:14.457Z,7.95
2022-10-22T18:14:45.545Z,7.99
2022-10-22T18:19:50.734Z,7.97
2022-10-22T18:22:20.304Z,8.00
2022-10-22T18:24:49.644Z,8.00
2022-10-22T18:27:19.044Z,7.89
2022-10-22T18:29:55.804Z,7.92
2022-10-22T18:32:25.247Z,7.86
2022-10-22T18:34:57.105Z,7.84
2022-10-22T18:37:26.973Z,7.89
2022-10-22T18:39:56.284Z,7.81
2022-10-22T18:42:28.858Z,7.72
2022-10-22T18:45:02.936Z,7.75
2022-10-22T18:47:35.152Z,7.77
2022-10-22T18:50:05.155Z,7.72
2022-10-22T18:52:34.672Z,7.77
2022-10-22T18:55:04.888Z,7.70
2022-10-22T18:57:35.704Z,7.75
2022-10-22T19:00:11.073Z,7.72
2022-10-22T19:02:40.578Z,7.66
2022-10-22T19:05:11.262Z,7.73
2022-10-22T19:07:41.321Z,7.68
2022-10-22T19:10:11.567Z,7.63
2022-10-22T19:12:41.340Z,7.65
2022-10-22T19:15:14.374Z,7.67
2022-10-22T19:17:44.012Z,7.61
2022-10-22T19:20:14.563Z,7.67
2022-10-22T19:22:44.208Z,7.67
2022-10-22T19:25:13.995Z,7.66
2022-10-22T19:27:43.663Z,7.68
2022-10-22T19:30:16.164Z,7.56
2022-10-22T19:32:50.313Z,7.53
2022-10-22T19:35:21.032Z,7.61
2022-10-22T19:37:52.367Z,7.54
2022-10-22T19:40:26.018Z,7.51
2022-10-22T19:42:55.433Z,7.56
2022-10-22T19:45:26.394Z,7.59
2022-10-22T19:47:55.559Z,7.52
2022-10-22T19:50:25.061Z,7.47
2022-10-22T19:52:54.603Z,7.54
2022-10-22T19:55:23.940Z,7.51
2022-10-22T19:57:53.305Z,7.54
2022-10-22T20:00:28.535Z,7.53
2022-10-22T20:02:57.700Z,7.54
2022-10-22T20:05:27.069Z,7.51
2022-10-22T20:07:59.071Z,7.44
2022-10-22T20:10:30.945Z,7.57
2022-10-22T20:13:00.420Z,7.49
2022-10-22T20:15:34.579Z,7.52
2022-10-22T20:18:03.934Z,7.53
2022-10-22T20:20:34.458Z,7.51
2022-10-22T20:23:03.792Z,7.35
2022-10-22T20:25:35.279Z,7.44
2022-10-22T20:28:04.514Z,7.28
2022-10-22T20:30:35.326Z,7.26
2022-10-22T20:33:04.505Z,7.14
2022-10-22T20:35:33.727Z,7.03
2022-10-22T20:38:02.993Z,6.99
2022-10-22T20:40:32.521Z,7.00
2022-10-22T20:43:02.384Z,6.90
2022-10-22T20:45:31.599Z,6.80
2022-10-22T20:48:03.068Z,6.87
2022-10-22T20:50:32.814Z,6.89
2022-10-22T20:53:01.667Z,6.86
2022-10-22T20:55:31.255Z,6.93
2022-10-22T20:58:00.287Z,6.92
2022-10-22T21:00:29.494Z,7.05
2022-10-22T21:02:58.298Z,7.09
2022-10-22T21:05:28.711Z,7.10
2022-10-22T21:07:58.539Z,7.07
2022-10-22T21:10:32.278Z,7.10
2022-10-22T21:13:01.857Z,7.15
2022-10-22T21:15:30.477Z,7.22
2022-10-22T21:17:59.499Z,7.18
2022-10-22T21:20:32.876Z,7.23
2022-10-22T21:23:01.823Z,7.24
2022-10-22T21:25:30.550Z,7.26
2022-10-22T21:27:59.501Z,7.16
2022-10-22T21:30:28.292Z,7.22
2022-10-22T21:32:58.149Z,7.21
2022-10-22T21:35:27.115Z,7.23
2022-10-22T21:37:57.187Z,7.29
2022-10-22T21:40:27.615Z,7.26
2022-10-22T21:42:56.962Z,7.28
2022-10-22T21:45:25.932Z,7.32
2022-10-22T21:47:54.703Z,7.23
2022-10-22T21:50:23.401Z,7.27
2022-10-22T21:52:52.626Z,7.19
2022-10-22T21:55:22.876Z,7.18
2022-10-22T21:57:51.541Z,7.19
2022-10-22T22:00:23.074Z,7.26
2022-10-22T22:02:52.928Z,7.25
2022-10-22T22:05:21.905Z,7.24
2022-10-22T22:07:50.629Z,7.14
2022-10-22T22:10:19.570Z,7.12
2022-10-22T22:12:53.934Z,7.19
2022-10-22T22:15:23.711Z,7.16
2022-10-22T22:17:52.385Z,7.20
2022-10-22T22:20:21.200Z,7.12
2022-10-22T22:22:50.146Z,7.11
2022-10-22T22:25:19.052Z,7.11
2022-10-22T22:27:49.228Z,7.14
2022-10-22T22:30:18.506Z,7.09
2022-10-22T22:32:47.327Z,7.13
2022-10-22T22:35:16.182Z,7.09
2022-10-22T22:37:44.976Z,7.08
2022-10-22T22:40:13.983Z,7.09
2022-10-22T22:42:42.811Z,7.05
2022-10-22T22:45:13.203Z,7.09
2022-10-22T22:47:42.151Z,7.03
2022-10-22T22:50:11.314Z,6.97
2022-10-22T22:52:40.291Z,7.03
2022-10-22T22:55:10.658Z,6.95
2022-10-22T22:57:40.738Z,6.99
2022-10-22T23:00:14.384Z,6.93
2022-10-22T23:02:43.451Z,6.97
2022-10-22T23:05:12.552Z,6.91
2022-10-22T23:07:41.229Z,6.98
2022-10-22T23:10:10.922Z,6.81
2022-10-22T23:12:40.661Z,6.82
2022-10-22T23:15:10.517Z,6.77
2022-10-22T23:17:40.622Z,6.88
2022-10-22T23:20:11.070Z,6.77
2022-10-22T23:22:40.162Z,6.81
2022-10-22T23:25:10.960Z,6.89
2022-10-22T23:27:41.717Z,6.83
2022-10-22T23:30:12.657Z,6.87
2022-10-22T23:32:43.202Z,6.82
2022-10-22T23:35:12.436Z,6.76
2022-10-22T23:37:41.852Z,6.64
2022-10-22T23:40:12.520Z,6.58
2022-10-22T23:42:44.248Z,6.62
2022-10-22T23:45:13.612Z,6.51
2022-10-22T23:47:44.315Z,6.47
2022-10-22T23:50:13.994Z,6.45
2022-10-22T23:52:43.606Z,6.33
2022-10-22T23:55:13.159Z,6.33
2022-10-22T23:57:41.970Z,6.29
